createdAt,value
2022-09-07T00:03:27.207Z,2.40
2022-09-07T00:08:24.028Z,2.35
2022-09-07T00:13:17.760Z,1.80
2022-09-07T00:18:11.773Z,2.25
2022-09-07T00:23:04.700Z,2.22
2022-09-07T00:27:57.764Z,2.58
2022-09-07T00:32:51.018Z,2.53
2022-09-07T00:37:45.125Z,2.53
2022-09-07T00:42:39.357Z,2.60
2022-09-07T00:48:18.083Z,3.00
2022-09-07T00:53:21.853Z,2.60
2022-09-07T00:58:15.083Z,3.03
2022-09-07T01:03:11.703Z,2.72
2022-09-07T01:08:06.964Z,2.70
2022-09-07T01:13:01.141Z,2.92
2022-09-07T01:18:27.379Z,3.05
2022-09-07T01:23:39.311Z,2.58
2022-09-07T01:28:37.043Z,2.70
2022-09-07T01:33:42.196Z,2.45
2022-09-07T01:38:38.521Z,2.67
2022-09-07T01:44:06.804Z,2.72
2022-09-07T01:49:30.005Z,2.28
2022-09-07T01:54:35.414Z,2.22
2022-09-07T01:59:37.252Z,1.92
2022-09-07T02:04:50.870Z,2.10
2022-09-07T02:09:55.512Z,2.05
2022-09-07T02:14:54.933Z,1.75
2022-09-07T02:20:00.620Z,1.95
2022-09-07T02:24:59.558Z,2.75
2022-09-07T02:29:53.276Z,3.70
2022-09-07T02:34:47.836Z,3.58
2022-09-07T02:39:45.098Z,3.30
2022-09-07T02:44:46.199Z,4.88
2022-09-07T02:50:18.587Z,5.32
2022-09-07T02:55:22.547Z,5.57
2022-09-07T03:00:26.748Z,4.88
2022-09-07T03:05:25.856Z,3.90
2022-09-07T03:10:19.924Z,5.17
2022-09-07T03:15:22.245Z,4.47
2022-09-07T03:20:16.793Z,4.28
2022-09-07T03:25:12.445Z,3.97
2022-09-07T03:30:09.326Z,3.15
2022-09-07T03:35:04.243Z,2.72
2022-09-07T03:39:57.924Z,2.28
2022-09-07T03:44:55.229Z,2.17
2022-09-07T03:49:50.004Z,2.72
2022-09-07T03:54:47.867Z,2.78
2022-09-07T03:59:41.562Z,3.30
2022-09-07T04:04:35.552Z,2.65
2022-09-07T04:09:28.950Z,3.30
2022-09-07T04:14:23.388Z,2.63
2022-09-07T04:19:17.644Z,2.40
2022-09-07T04:24:11.877Z,2.33
2022-09-07T04:29:07.515Z,2.65
2022-09-07T04:34:04.678Z,2.28
2022-09-07T04:39:03.319Z,1.63
2022-09-07T04:43:59.874Z,2.10
2022-09-07T04:48:55.928Z,1.92
2022-09-07T04:53:50.783Z,1.98
2022-09-07T04:58:44.568Z,2.63
2022-09-07T05:03:40.087Z,2.35
2022-09-07T05:08:44.006Z,2.60
2022-09-07T05:13:38.077Z,3.05
2022-09-07T05:18:32.534Z,3.20
2022-09-07T05:23:27.062Z,2.17
2022-09-07T05:28:20.982Z,2.95
2022-09-07T05:33:15.029Z,2.28
2022-09-07T05:38:08.816Z,3.03
2022-09-07T05:43:02.645Z,2.40
2022-09-07T05:47:56.991Z,2.67
2022-09-07T05:52:51.090Z,2.35
2022-09-07T05:57:45.333Z,2.20
2022-09-07T06:02:39.899Z,2.22
2022-09-07T06:07:33.884Z,1.73
2022-09-07T06:12:28.343Z,2.33
2022-09-07T06:17:22.454Z,2.30
2022-09-07T06:22:16.181Z,2.13
2022-09-07T06:27:10.601Z,2.45
2022-09-07T06:37:18.404Z,2.40
2022-09-07T06:42:13.108Z,2.78
2022-09-07T06:47:11.503Z,2.28
2022-09-07T06:52:04.863Z,2.53
2022-09-07T06:56:59.768Z,3.55
2022-09-07T07:01:53.570Z,2.35
2022-09-07T07:06:47.367Z,2.20
2022-09-07T07:11:44.244Z,2.30
2022-09-07T07:16:41.984Z,2.17
2022-09-07T07:21:55.305Z,2.75
2022-09-07T07:26:50.707Z,2.30
2022-09-07T07:31:45.079Z,2.40
2022-09-07T07:36:39.736Z,2.20
2022-09-07T07:46:49.627Z,2.17
2022-09-07T07:56:57.077Z,2.30
2022-09-07T08:01:51.763Z,3.83
2022-09-07T08:06:45.463Z,3.00
2022-09-07T08:11:40.458Z,2.78
2022-09-07T08:16:38.108Z,2.90
2022-09-07T08:21:31.380Z,3.15
2022-09-07T08:26:28.997Z,3.17
2022-09-07T08:31:23.196Z,2.90
2022-09-07T08:36:19.999Z,3.03
2022-09-07T08:41:31.956Z,2.72
2022-09-07T08:46:27.970Z,3.50
2022-09-07T08:51:36.125Z,2.58
2022-09-07T08:56:35.284Z,2.83
2022-09-07T09:01:41.618Z,2.97
2022-09-07T09:07:01.400Z,3.30
2022-09-07T09:12:07.286Z,2.93
2022-09-07T09:17:35.952Z,3.33
2022-09-07T09:22:30.393Z,3.47
2022-09-07T09:27:27.437Z,3.55
2022-09-07T09:33:03.007Z,3.00
2022-09-07T09:37:58.205Z,3.20
2022-09-07T09:43:19.479Z,3.95
2022-09-07T09:48:25.083Z,3.22
2022-09-07T09:53:33.206Z,4.05
2022-09-07T10:04:04.687Z,3.58
2022-09-07T10:09:00.626Z,4.30
2022-09-07T10:13:58.276Z,3.88
2022-09-07T10:18:59.716Z,4.40
2022-09-07T10:24:15.731Z,4.88
2022-09-07T10:29:08.926Z,4.55
2022-09-07T10:34:39.194Z,4.30
2022-09-07T10:40:01.684Z,4.45
2022-09-07T10:44:57.523Z,4.30
2022-09-07T10:55:26.310Z,4.85
2022-09-07T11:00:21.940Z,4.05
2022-09-07T11:05:56.341Z,4.75
2022-09-07T11:11:08.467Z,4.20
2022-09-07T11:16:07.811Z,5.28
2022-09-07T11:26:34.828Z,5.43
2022-09-07T11:32:08.474Z,4.15
2022-09-07T11:37:21.052Z,4.82
2022-09-07T11:47:46.263Z,5.03
2022-09-07T11:52:44.021Z,4.57
2022-09-07T11:58:10.890Z,3.97
2022-09-07T12:03:09.013Z,4.43
2022-09-07T12:08:23.274Z,4.40
2022-09-07T12:13:55.059Z,3.90
2022-09-07T12:19:18.649Z,4.22
2022-09-07T12:24:36.488Z,3.88
2022-09-07T12:29:31.668Z,4.05
2022-09-07T12:34:33.699Z,3.50
2022-09-07T12:39:29.300Z,3.33
2022-09-07T12:44:28.566Z,3.80
2022-09-07T12:49:31.737Z,3.38
2022-09-07T12:55:16.486Z,3.78
2022-09-07T13:00:15.985Z,3.70
2022-09-07T13:05:36.601Z,3.05
2022-09-07T13:10:36.855Z,3.88
2022-09-07T13:15:41.534Z,4.40
2022-09-07T13:20:40.608Z,5.65
2022-09-07T13:25:37.853Z,6.68
2022-09-07T13:31:08.728Z,5.03
2022-09-07T13:36:06.609Z,5.45
2022-09-07T13:41:16.663Z,5.63
2022-09-07T13:46:33.472Z,5.47
2022-09-07T13:51:46.361Z,4.90
2022-09-07T13:57:00.820Z,5.13
2022-09-07T14:01:54.902Z,5.57
2022-09-07T14:06:49.332Z,4.43
2022-09-07T14:11:49.428Z,4.68
2022-09-07T14:16:46.709Z,4.25
2022-09-07T14:21:40.751Z,4.07
2022-09-07T14:26:34.826Z,3.92
2022-09-07T14:31:29.224Z,4.05
2022-09-07T14:36:45.609Z,3.78
2022-09-07T14:41:41.446Z,3.80
2022-09-07T14:46:38.677Z,3.92
2022-09-07T14:51:36.431Z,3.42
2022-09-07T14:56:42.361Z,3.10
2022-09-07T15:01:37.803Z,3.40
2022-09-07T15:12:19.723Z,3.63
2022-09-07T15:17:49.000Z,3.08
2022-09-07T15:22:44.212Z,2.92
2022-09-07T15:27:39.283Z,2.75
2022-09-07T15:32:34.204Z,2.85
2022-09-07T15:47:53.909Z,2.60
2022-09-07T15:52:47.450Z,2.50
2022-09-07T15:57:51.269Z,2.40
2022-09-07T16:03:06.606Z,2.42
2022-09-07T16:13:16.911Z,2.50
2022-09-07T16:18:11.563Z,2.80
2022-09-07T16:23:20.781Z,2.47
2022-09-07T16:28:14.573Z,2.37
2022-09-07T16:33:08.614Z,2.38
2022-09-07T16:43:17.991Z,2.13
2022-09-07T16:48:12.715Z,2.10
2022-09-07T16:53:07.081Z,2.33
2022-09-07T17:03:14.381Z,2.85
2022-09-07T17:08:08.376Z,2.30
2022-09-07T17:13:04.370Z,2.65
2022-09-07T17:18:00.819Z,2.20
2022-09-07T17:22:55.067Z,2.00
2022-09-07T17:27:49.365Z,2.10
2022-09-07T17:32:43.152Z,2.42
2022-09-07T17:37:37.049Z,2.50
2022-09-07T17:47:44.756Z,2.47
2022-09-07T17:52:40.444Z,2.88
2022-09-07T17:57:39.378Z,2.45
2022-09-07T18:02:33.575Z,3.17
2022-09-07T18:07:27.955Z,2.35
2022-09-07T18:12:22.025Z,2.90
2022-09-07T18:17:20.029Z,2.88
2022-09-07T18:22:15.278Z,2.95
2022-09-07T18:27:10.651Z,2.65
2022-09-07T18:32:08.929Z,3.28
2022-09-07T18:37:03.122Z,2.83
2022-09-07T18:41:57.253Z,2.83
2022-09-07T18:46:50.809Z,2.78
2022-09-07T18:56:58.453Z,2.58
2022-09-07T19:01:53.953Z,2.92
2022-09-07T19:06:47.638Z,2.60
2022-09-07T19:12:00.956Z,3.30
2022-09-07T19:16:54.344Z,2.63
2022-09-07T19:21:48.252Z,3.05
2022-09-07T19:26:45.300Z,2.63
2022-09-07T19:31:39.626Z,2.80
2022-09-07T19:36:34.813Z,2.60
2022-09-07T19:41:28.028Z,2.35
2022-09-07T19:46:24.968Z,2.65
2022-09-07T19:51:18.536Z,3.40
2022-09-07T19:56:33.290Z,2.72
2022-09-07T20:01:26.631Z,3.00
2022-09-07T20:06:20.696Z,3.42
2022-09-07T20:11:17.269Z,3.33
2022-09-07T20:16:14.559Z,3.25
2022-09-07T20:21:13.915Z,2.95
2022-09-07T20:26:10.035Z,3.58
2022-09-07T20:31:26.309Z,3.35
2022-09-07T20:36:22.617Z,5.05
2022-09-07T20:41:22.377Z,3.33
2022-09-07T20:51:12.339Z,3.65
2022-09-07T20:56:08.667Z,3.58
2022-09-07T21:01:01.979Z,4.18
2022-09-07T21:05:55.374Z,3.88
2022-09-07T21:10:49.208Z,4.20
2022-09-07T21:15:44.434Z,3.55
2022-09-07T21:20:38.575Z,4.20
2022-09-07T21:25:32.086Z,3.53
2022-09-07T21:30:26.010Z,3.80
2022-09-07T21:35:19.893Z,4.13
2022-09-07T21:40:14.195Z,3.45
2022-09-07T21:45:11.255Z,4.05
2022-09-07T21:50:06.579Z,4.00
2022-09-07T21:55:00.125Z,4.32
2022-09-07T21:59:53.905Z,4.82
2022-09-07T22:04:47.410Z,4.70
2022-09-07T22:09:41.012Z,4.45
2022-09-07T22:14:35.063Z,5.20
2022-09-07T22:19:29.344Z,4.63
2022-09-07T22:24:23.872Z,4.68
2022-09-07T22:29:16.829Z,5.43
2022-09-07T22:34:15.119Z,4.68
2022-09-07T22:39:14.306Z,6.43
2022-09-07T22:44:10.761Z,6.30
2022-09-07T22:49:04.626Z,5.95
2022-09-07T22:53:58.320Z,6.57
2022-09-07T22:59:02.949Z,6.28
2022-09-07T23:03:57.286Z,6.43
2022-09-07T23:08:52.867Z,5.72
2022-09-07T23:13:45.786Z,5.68
2022-09-07T23:18:42.729Z,4.72
2022-09-07T23:23:36.879Z,4.70
2022-09-07T23:28:31.994Z,5.43
2022-09-07T23:33:26.594Z,5.18
2022-09-07T23:38:20.273Z,7.43
2022-09-07T23:43:18.097Z,5.68
2022-09-07T23:48:11.815Z,7.93
2022-09-07T23:53:05.844Z,8.75
2022-09-07T23:57:59.779Z,10.27
